Sirius — WDA2145 — position and weather

sailwx.info

Track history (hours):
 
Tides and Currents Weather Stations Pressure Air Temp Water Temp Dewpoint Dewpoint Depression Visibility Wind Speed Wind Dir Waves Ship Positions

Sirius

Owner: TISBURY TOWING AND TRANSPORTATION INC, TISBURY, MA. More information available from US FCC via Universal Licensing System and Coast Guard Vessel Documentation Center.

Last reported at 2014-Dec-20 15:11 UTC. Time now 2014-Dec-21 02:39 UTC.
Position N 41°32' W 070°44'.

Length 19 m; draft 1.9 m.

Type: Towing. MMSI: 367181040.

Date/timePositionNaut miles runAvg speedWind from/ knotsBaromVisibWave heightAir tempDewpointWater temp
2014-Dec-20 15:11N 41°32' W 070°44'4 5.6
2014-Dec-20 14:25N 41°33' W 070°49'22 1.2
2014-Dec-19 20:19N 41°27' W 070°21'5 5.9
2014-Dec-19 19:25N 41°27' W 070°28'6 5.4
2014-Dec-19 18:16N 41°29' W 070°35'3 4.0
2014-Dec-19 17:33N 41°30' W 070°39'6 5.3
2014-Dec-19 16:31N 41°32' W 070°46'4 0.1
2014-Dec-18 03:10N 41°33' W 070°51'6 0.4
2014-Dec-17 12:32N 41°39' W 070°55'7 0.9
2014-Dec-17 04:28N 41°33' W 070°50'6 6.1
2014-Dec-17 03:30N 41°32' W 070°43'7 5.7
2014-Dec-17 02:18N 41°27' W 070°36'0 0.1
2014-Dec-17 01:33N 41°27' W 070°36'0 0.0
2014-Dec-17 00:33N 41°27' W 070°36'0 0.0
2014-Dec-16 23:32N 41°27' W 070°36'0 0.0
2014-Dec-16 22:19N 41°27' W 070°36'0 0.0
2014-Dec-16 21:30N 41°27' W 070°36'0 0.0
2014-Dec-16 20:26N 41°27' W 070°36'0 0.0
2014-Dec-16 19:12N 41°27' W 070°36'0 0.0
2014-Dec-16 18:31N 41°27' W 070°36'2 1.7
2014-Dec-16 17:33N 41°28' W 070°34'7 7.1
2014-Dec-16 16:33N 41°27' W 070°25'7 7.3
2014-Dec-16 15:33N 41°26' W 070°15'7 6.5
2014-Dec-16 14:33N 41°22' W 070°08'5 5.0
2014-Dec-16 13:33N 41°17' W 070°06'0 0.0
2014-Dec-16 12:32N 41°17' W 070°06'0 0.0
2014-Dec-16 11:33N 41°17' W 070°06'0 0.0
2014-Dec-16 10:33N 41°17' W 070°06'0 0.0
2014-Dec-16 09:29N 41°17' W 070°06'0 0.0
2014-Dec-16 08:33N 41°17' W 070°06'3 3.3
2014-Dec-16 07:33N 41°20' W 070°07'6 5.8
2014-Dec-16 06:33N 41°25' W 070°12'7 6.6
2014-Dec-16 05:33N 41°26' W 070°20'6 5.8
2014-Dec-16 04:32N 41°27' W 070°28'5 5.2
2014-Dec-16 03:33N 41°29' W 070°35'4 4.4
2014-Dec-16 02:32N 41°31' W 070°40'5 5.2
2014-Dec-16 01:33N 41°32' W 070°47'7 5.2
2014-Dec-16 00:16N 41°36' W 070°54'11 3.5
2014-Dec-15 21:07N 41°31' W 070°41'6 2.0
2014-Dec-15 18:22N 41°27' W 070°36'2 0.8
2014-Dec-15 15:33N 41°30' W 070°37'6 5.5
2014-Dec-15 14:32N 41°32' W 070°44'6 6.2
2014-Dec-15 13:31N 41°34' W 070°52'0 0.0
2014-Dec-15 09:13N 41°34' W 070°52'5 6.8
2014-Dec-15 08:32N 41°32' W 070°46'6 5.8
2014-Dec-15 07:33N 41°31' W 070°39'4 4.0
2014-Dec-15 06:33N 41°27' W 070°36'0 0.0
2014-Dec-15 05:06N 41°27' W 070°36'0 0.0
2014-Dec-15 02:15N 41°27' W 070°36'0 0.0
2014-Dec-15 01:32N 41°27' W 070°36'0 0.0
2014-Dec-14 11:16N 41°27' W 070°36'0 0.0
2014-Dec-13 18:12N 41°27' W 070°36'  
2014-Dec-11 12:27N 41°39' W 070°55'19 1.3
2014-Dec-10 22:06N 41°27' W 070°36'0 0.0
2014-Dec-10 21:30N 41°27' W 070°36'  
Track history (hours):
 
Tides and Currents Weather Stations Pressure Air Temp Water Temp Dewpoint Dewpoint Depression Visibility Wind Speed Wind Dir Waves Ship Positions

Sirius

Owner: TISBURY TOWING AND TRANSPORTATION INC, TISBURY, MA. More information available from US FCC via Universal Licensing System and Coast Guard Vessel Documentation Center.

Last reported at 2014-Dec-20 15:11 UTC. Time now 2014-Dec-21 02:39 UTC.
Position N 41°32' W 070°44'.

Length 19 m; draft 1.9 m.

Type: Towing. MMSI: 367181040.

Date/timePositionNaut miles runAvg speedWind from/ knotsBaromVisibWave heightAir tempDewpointWater temp
2014-Dec-20 15:11N 41°32' W 070°44'4 5.6
2014-Dec-20 14:25N 41°33' W 070°49'22 1.2
2014-Dec-19 20:19N 41°27' W 070°21'5 5.9
2014-Dec-19 19:25N 41°27' W 070°28'6 5.4
2014-Dec-19 18:16N 41°29' W 070°35'3 4.0
2014-Dec-19 17:33N 41°30' W 070°39'6 5.3
2014-Dec-19 16:31N 41°32' W 070°46'4 0.1
2014-Dec-18 03:10N 41°33' W 070°51'6 0.4
2014-Dec-17 12:32N 41°39' W 070°55'7 0.9
2014-Dec-17 04:28N 41°33' W 070°50'6 6.1
2014-Dec-17 03:30N 41°32' W 070°43'7 5.7
2014-Dec-17 02:18N 41°27' W 070°36'0 0.1
2014-Dec-17 01:33N 41°27' W 070°36'0 0.0
2014-Dec-17 00:33N 41°27' W 070°36'0 0.0
2014-Dec-16 23:32N 41°27' W 070°36'0 0.0
2014-Dec-16 22:19N 41°27' W 070°36'0 0.0
2014-Dec-16 21:30N 41°27' W 070°36'0 0.0
2014-Dec-16 20:26N 41°27' W 070°36'0 0.0
2014-Dec-16 19:12N 41°27' W 070°36'0 0.0
2014-Dec-16 18:31N 41°27' W 070°36'2 1.7
2014-Dec-16 17:33N 41°28' W 070°34'7 7.1
2014-Dec-16 16:33N 41°27' W 070°25'7 7.3
2014-Dec-16 15:33N 41°26' W 070°15'7 6.5
2014-Dec-16 14:33N 41°22' W 070°08'5 5.0
2014-Dec-16 13:33N 41°17' W 070°06'0 0.0
2014-Dec-16 12:32N 41°17' W 070°06'0 0.0
2014-Dec-16 11:33N 41°17' W 070°06'0 0.0
2014-Dec-16 10:33N 41°17' W 070°06'0 0.0
2014-Dec-16 09:29N 41°17' W 070°06'0 0.0
2014-Dec-16 08:33N 41°17' W 070°06'3 3.3
2014-Dec-16 07:33N 41°20' W 070°07'6 5.8
2014-Dec-16 06:33N 41°25' W 070°12'7 6.6
2014-Dec-16 05:33N 41°26' W 070°20'6 5.8
2014-Dec-16 04:32N 41°27' W 070°28'5 5.2
2014-Dec-16 03:33N 41°29' W 070°35'4 4.4
2014-Dec-16 02:32N 41°31' W 070°40'5 5.2
2014-Dec-16 01:33N 41°32' W 070°47'7 5.2
2014-Dec-16 00:16N 41°36' W 070°54'11 3.5
2014-Dec-15 21:07N 41°31' W 070°41'6 2.0
2014-Dec-15 18:22N 41°27' W 070°36'2 0.8
2014-Dec-15 15:33N 41°30' W 070°37'6 5.5
2014-Dec-15 14:32N 41°32' W 070°44'6 6.2
2014-Dec-15 13:31N 41°34' W 070°52'0 0.0
2014-Dec-15 09:13N 41°34' W 070°52'5 6.8
2014-Dec-15 08:32N 41°32' W 070°46'6 5.8
2014-Dec-15 07:33N 41°31' W 070°39'4 4.0
2014-Dec-15 06:33N 41°27' W 070°36'0 0.0
2014-Dec-15 05:06N 41°27' W 070°36'0 0.0
2014-Dec-15 02:15N 41°27' W 070°36'0 0.0
2014-Dec-15 01:32N 41°27' W 070°36'0 0.0
2014-Dec-14 11:16N 41°27' W 070°36'0 0.0
2014-Dec-13 18:12N 41°27' W 070°36'  
2014-Dec-11 12:27N 41°39' W 070°55'19 1.3
2014-Dec-10 22:06N 41°27' W 070°36'0 0.0
2014-Dec-10 21:30N 41°27' W 070°36'  

Dump ship's entire track history